Time;durP1;ratioP1;P1;durP2;ratioP2;P2;SDS_P1;SDS_P2;PMS_P1;PMS_P2;Temp;Humidity;BMP_temperature;BMP_pressure;BME280_temperature;BME280_humidity;BME280_pressure;Samples;Min_cycle;Max_cycle;Signal;HPM_P1;HPM_P2
2020/12/28 00:00:11;;;;;;;8.70;6.62;;;;;;;1.67;63.69;101278.67;1740592;81;21137;-54
2020/12/28 00:02:40;;;;;;;9.35;6.25;;;;;;;1.67;63.71;101272.09;1743370;81;21160;-45
2020/12/28 00:05:09;;;;;;;9.10;6.45;;;;;;;1.72;63.56;101270.74;1746892;80;21587;-48
2020/12/28 00:07:37;;;;;;;10.38;7.42;;;;;;;1.72;63.50;101262.85;1744560;80;21133;-54
2020/12/28 00:10:10;;;;;;;9.08;6.40;;;;;;;1.72;63.40;101257.59;1748826;80;21118;-51
2020/12/28 00:12:47;;;;;;;9.10;6.10;;;;;;;1.74;63.20;101257.14;1738880;80;22193;-52
2020/12/28 00:15:26;;;;;;;8.20;6.10;;;;;;;1.75;63.14;101257.55;1739909;80;21125;-44
2020/12/28 00:17:58;;;;;;;8.25;6.12;;;;;;;1.77;62.95;101255.79;1748082;80;21444;-54
2020/12/28 00:20:27;;;;;;;14.50;7.67;;;;;;;1.79;62.78;101253.13;1746945;80;21122;-54
2020/12/28 00:22:56;;;;;;;7.80;5.50;;;;;;;1.79;62.75;101252.70;1746470;80;21130;-54
2020/12/28 00:25:28;;;;;;;8.25;5.65;;;;;;;1.81;62.58;101247.41;1743618;80;21137;-54
2020/12/28 00:27:56;;;;;;;9.15;5.65;;;;;;;1.82;62.49;101243.46;1740695;80;21698;-55
2020/12/28 00:30:23;;;;;;;7.83;6.20;;;;;;;1.84;62.44;101243.42;1742401;81;21137;-43
2020/12/28 00:32:51;;;;;;;7.92;6.00;;;;;;;1.88;62.21;101232.00;1729570;81;21145;-49
2020/12/28 00:35:18;;;;;;;11.95;8.03;;;;;;;1.88;62.07;101230.23;1737445;81;21181;-46
2020/12/28 00:37:47;;;;;;;12.15;7.75;;;;;;;1.89;61.81;101229.78;1728879;81;21439;-45
2020/12/28 00:40:16;;;;;;;8.30;5.85;;;;;;;1.90;61.78;101233.72;1766449;79;21594;-46
2020/12/28 00:42:44;;;;;;;10.63;7.03;;;;;;;1.92;61.82;101224.06;1767569;79;21108;-46
2020/12/28 00:45:11;;;;;;;14.00;7.47;;;;;;;1.94;61.76;101222.29;1761027;79;21568;-50
2020/12/28 00:47:40;;;;;;;11.10;7.85;;;;;;;1.95;61.66;101216.13;1725391;81;21149;-44
2020/12/28 00:50:07;;;;;;;9.83;7.17;;;;;;;1.94;61.73;101206.50;1764683;79;21621;-51
2020/12/28 00:52:35;;;;;;;12.58;8.48;;;;;;;1.95;61.64;101210.00;1770755;79;21589;-49
2020/12/28 00:55:05;;;;;;;10.32;7.92;;;;;;;1.96;61.65;101202.52;1706190;82;21136;-50
2020/12/28 00:57:33;;;;;;;11.33;7.95;;;;;;;1.97;61.76;101205.59;1759272;79;21150;-53
2020/12/28 01:00:04;;;;;;;11.20;8.08;;;;;;;1.99;61.72;101204.24;1706503;82;21160;-46
2020/12/28 01:02:44;;;;;;;10.63;7.87;;;;;;;1.98;61.48;101200.75;1764148;79;21724;-58
2020/12/28 01:05:13;;;;;;;10.95;8.08;;;;;;;2.00;61.52;101202.06;1704569;82;21124;-42
2020/12/28 01:07:42;;;;;;;11.55;7.62;;;;;;;2.01;61.57;101202.02;1743779;79;21154;-49
2020/12/28 01:10:12;;;;;;;10.58;7.42;;;;;;;2.03;61.67;101195.44;1764101;79;21134;-47
2020/12/28 01:12:42;;;;;;;11.48;7.83;;;;;;;2.05;61.56;101184.45;1765402;79;21134;-48
2020/12/28 01:15:10;;;;;;;10.98;8.00;;;;;;;2.06;61.50;101173.89;1748021;80;21141;-46
2020/12/28 01:17:40;;;;;;;12.15;7.65;;;;;;;2.06;61.48;101176.97;1727779;81;21637;-56
2020/12/28 01:20:09;;;;;;;11.57;7.87;;;;;;;2.06;61.46;101176.97;1770346;79;21143;-49
2020/12/28 01:22:37;;;;;;;13.40;8.63;;;;;;;2.07;61.40;101166.89;1748911;79;21134;-47
2020/12/28 01:25:05;;;;;;;10.25;7.25;;;;;;;2.08;61.56;101162.04;1751043;80;21158;-49
2020/12/28 01:27:34;;;;;;;11.88;7.87;;;;;;;2.09;61.41;101163.77;1762223;79;21851;-46
2020/12/28 01:30:03;;;;;;;10.53;7.25;;;;;;;2.10;61.52;101158.95;1781606;79;21437;-51
2020/12/28 01:32:31;;;;;;;12.53;8.60;;;;;;;2.11;61.40;101151.47;1761026;79;21131;-47
2020/12/28 01:35:36;;;;;;;10.50;8.05;;;;;;;2.14;61.56;101136.95;1791394;78;23518;-49
2020/12/28 01:38:04;;;;;;;9.75;7.05;;;;;;;2.14;61.59;101144.42;1768833;79;21160;-49
2020/12/28 01:40:34;;;;;;;10.75;7.50;;;;;;;2.16;61.49;101136.04;1764950;80;21141;-50
2020/12/28 01:43:04;;;;;;;11.60;7.60;;;;;;;2.17;61.50;101132.98;1775955;79;21121;-49
2020/12/28 01:45:32;;;;;;;9.75;7.17;;;;;;;2.17;61.50;101127.72;1775447;79;21153;-51
2020/12/28 01:48:01;;;;;;;11.60;7.55;;;;;;;2.16;61.51;101118.06;1687016;82;21196;-47
2020/12/28 01:50:29;;;;;;;10.48;7.22;;;;;;;2.16;61.66;101119.38;1686048;82;21163;-50
2020/12/28 01:52:57;;;;;;;12.25;7.30;;;;;;;2.19;61.67;101120.65;1678276;83;21129;-49
2020/12/28 01:55:26;;;;;;;10.05;7.40;;;;;;;2.21;61.59;101110.98;1699126;83;21138;-51
2020/12/28 01:57:56;;;;;;;10.07;7.20;;;;;;;2.22;61.60;101113.16;1673185;83;21189;-47
2020/12/28 02:00:25;;;;;;;12.23;7.60;;;;;;;2.19;61.57;101102.68;1681097;83;21137;-50
2020/12/28 02:02:55;;;;;;;10.75;7.53;;;;;;;2.19;61.60;101107.48;1698878;82;21121;-49
2020/12/28 02:05:31;;;;;;;10.82;8.35;;;;;;;2.23;61.62;101092.55;1789827;78;28233;-55
2020/12/28 02:07:59;;;;;;;12.37;8.08;;;;;;;2.21;61.60;101086.42;1775332;79;21537;-47
2020/12/28 02:10:27;;;;;;;11.78;8.13;;;;;;;2.28;61.59;101095.98;1771856;79;21580;-56
2020/12/28 02:12:56;;;;;;;10.65;6.80;;;;;;;2.28;61.56;101090.27;1746356;79;21141;-48
2020/12/28 02:15:25;;;;;;;11.38;7.45;;;;;;;2.27;61.42;101087.22;1719513;81;21460;-47
2020/12/28 02:18:13;;;;;;;11.45;7.15;;;;;;;2.26;61.52;101092.49;1723354;81;21287;-47
2020/12/28 02:20:50;;;;;;;10.50;6.15;;;;;;;2.31;61.56;101091.98;1759177;79;23653;-49
2020/12/28 02:23:18;;;;;;;11.50;6.50;;;;;;;2.29;61.58;101098.60;1735605;80;21151;-49
2020/12/28 02:25:46;;;;;;;11.38;6.83;;;;;;;2.28;61.49;101087.63;1732588;82;21558;-48
2020/12/28 02:28:13;;;;;;;11.05;6.60;;;;;;;2.30;61.51;101088.48;1728215;82;21153;-47
2020/12/28 02:30:41;;;;;;;11.40;6.95;;;;;;;2.29;61.67;101089.39;1713761;82;21504;-48
2020/12/28 02:33:42;;;;;;;8.50;6.47;;;;;;;2.31;61.49;101085.40;1787298;78;23018;-47
2020/12/28 02:36:12;;;;;;;8.98;6.78;;;;;;;2.28;61.67;101088.95;1759689;79;21663;-46
2020/12/28 02:38:40;;;;;;;10.82;7.05;;;;;;;2.29;61.68;101084.13;1769051;80;21576;-46
2020/12/28 02:41:08;;;;;;;11.10;6.72;;;;;;;2.29;61.89;101076.65;1779938;79;21180;-45
2020/12/28 02:43:54;;;;;;;11.68;6.53;;;;;;;2.30;61.92;101075.77;1772497;79;21168;-42
2020/12/28 02:46:39;;;;;;;9.98;6.87;;;;;;;2.31;61.82;101077.05;1755695;80;21139;-45
2020/12/28 02:49:25;;;;;;;8.98;6.17;;;;;;;2.32;61.78;101078.80;1760460;80;21172;-48
2020/12/28 02:52:13;;;;;;;8.85;6.35;;;;;;;2.31;61.71;101081.00;1781137;79;21774;-47
2020/12/28 02:55:15;;;;;;;10.88;6.72;;;;;;;2.37;61.93;101073.02;1801155;78;23611;-46
2020/12/28 02:58:00;;;;;;;10.48;7.22;;;;;;;2.34;62.13;101066.92;1764114;80;21182;-46
2020/12/28 03:00:47;;;;;;;9.45;6.83;;;;;;;2.35;62.40;101062.09;1771107;79;21167;-46
2020/12/28 03:03:33;;;;;;;12.45;7.62;;;;;;;2.33;62.47;101061.25;1722933;82;21141;-45
2020/12/28 03:06:19;;;;;;;10.63;6.75;;;;;;;2.31;62.64;101065.66;1715082;81;21117;-46
2020/12/28 03:09:05;;;;;;;11.53;7.55;;;;;;;2.31;62.87;101060.39;1740184;81;21251;-46
2020/12/28 03:11:51;;;;;;;12.68;7.87;;;;;;;2.33;62.96;101062.56;1738294;81;21173;-46
2020/12/28 03:14:37;;;;;;;10.30;7.35;;;;;;;2.32;62.94;101060.38;1732537;81;21180;-47
2020/12/28 03:17:23;;;;;;;11.75;8.15;;;;;;;2.31;62.81;101057.30;1735282;81;21253;-52
2020/12/28 03:20:09;;;;;;;10.72;7.35;;;;;;;2.30;62.95;101058.21;1726258;81;21873;-57
2020/12/28 03:22:54;;;;;;;11.40;8.53;;;;;;;2.27;62.96;101050.79;1717672;81;21128;-61
2020/12/28 03:25:40;;;;;;;10.55;8.00;;;;;;;2.26;63.08;101048.61;1716683;81;21161;-48
2020/12/28 03:28:25;;;;;;;12.47;8.25;;;;;;;2.27;62.91;101049.05;1698207;83;21228;-46
2020/12/28 03:31:41;;;;;;;11.88;6.97;;;;;;;2.29;62.90;101050.33;1792726;78;22721;-46
2020/12/28 03:34:27;;;;;;;12.85;7.85;;;;;;;2.23;62.98;101053.06;1773665;79;21270;-43
2020/12/28 03:37:12;;;;;;;16.35;9.10;;;;;;;2.23;63.04;101050.44;1777341;79;21149;-47
2020/12/28 03:39:58;;;;;;;14.47;7.78;;;;;;;2.21;63.01;101047.81;1771266;79;21160;-43
2020/12/28 03:42:44;;;;;;;10.98;7.10;;;;;;;2.21;63.03;101045.18;1763394;79;21189;-44
2020/12/28 03:45:30;;;;;;;11.73;8.25;;;;;;;2.23;63.09;101046.48;1764052;79;21243;-45
2020/12/28 03:48:16;;;;;;;12.58;8.68;;;;;;;2.25;63.15;101035.04;1757916;79;21176;-47
2020/12/28 03:51:01;;;;;;;15.30;9.50;;;;;;;2.26;63.14;101034.59;1766989;79;21152;-42
2020/12/28 03:53:47;;;;;;;14.45;8.90;;;;;;;2.24;63.07;101034.59;1759012;80;21121;-46
2020/12/28 03:56:32;;;;;;;14.10;8.48;;;;;;;2.24;63.15;101031.97;1755419;80;21322;-50
2020/12/28 03:59:18;;;;;;;15.10;9.78;;;;;;;2.26;63.10;101031.95;1764329;80;21145;-49
2020/12/28 04:02:28;;;;;;;13.75;8.33;;;;;;;2.29;63.01;101034.11;1795321;78;23548;-49
2020/12/28 04:05:14;;;;;;;11.83;8.78;;;;;;;2.29;62.98;101034.53;1739838;81;21192;-53
2020/12/28 04:08:00;;;;;;;15.30;8.93;;;;;;;2.26;62.98;101031.50;1709178;81;21168;-48
2020/12/28 04:10:37;;;;;;;15.63;11.18;;;;;;;2.27;63.06;101025.36;1811930;76;28058;-53
2020/12/28 04:13:07;;;;;;;;;;;;;;;2.27;63.06;101025.36;1765665;80;21627;-50
2020/12/28 04:15:37;;;;;;;17.30;9.55;;;;;;;2.32;62.98;101022.21;1759233;81;20290;-48
2020/12/28 04:18:11;;;;;;;14.93;8.60;;;;;;;2.34;62.88;101021.75;1767199;79;22942;-46
2020/12/28 04:20:38;;;;;;;13.15;8.28;;;;;;;2.29;62.89;101017.00;1733338;80;21150;-44
2020/12/28 04:23:06;;;;;;;15.50;8.60;;;;;;;2.30;62.87;101017.41;1728409;80;21121;-41
2020/12/28 04:25:35;;;;;;;11.05;8.28;;;;;;;2.29;62.92;101011.73;1735487;82;21129;-45
2020/12/28 04:28:02;;;;;;;11.43;7.75;;;;;;;2.30;62.95;101014.78;1730501;82;21667;-43
2020/12/28 04:30:30;;;;;;;13.15;8.50;;;;;;;2.30;62.96;101006.88;1714834;83;21574;-46
2020/12/28 04:32:57;;;;;;;14.63;8.48;;;;;;;2.31;62.98;100998.53;1713031;82;21166;-45
2020/12/28 04:35:25;;;;;;;13.40;8.38;;;;;;;2.30;62.92;101001.62;1711533;83;21177;-41
2020/12/28 04:37:53;;;;;;;15.55;9.28;;;;;;;2.30;62.96;100992.86;1717427;82;21486;-44
2020/12/28 04:40:21;;;;;;;13.35;8.30;;;;;;;2.28;63.10;100991.55;1713389;83;21570;-47
2020/12/28 04:42:48;;;;;;;16.10;8.65;;;;;;;2.28;63.21;100984.98;1722820;82;21629;-49
2020/12/28 04:45:17;;;;;;;14.78;8.88;;;;;;;2.28;63.14;100978.40;1713224;83;21171;-53
2020/12/28 04:47:44;;;;;;;12.58;8.63;;;;;;;2.26;63.16;100972.28;1713982;82;21140;-44
2020/12/28 04:50:14;;;;;;;13.10;8.80;;;;;;;2.26;63.07;100964.84;1730492;82;21193;-48
2020/12/28 04:52:42;;;;;;;11.97;8.03;;;;;;;2.28;63.02;100960.42;1717177;82;21146;-47
2020/12/28 04:55:09;;;;;;;14.07;8.90;;;;;;;2.26;63.04;100956.48;1712889;82;21192;-47
2020/12/28 04:57:36;;;;;;;12.40;7.55;;;;;;;2.28;62.97;100955.16;1711362;82;21149;-48
2020/12/28 05:00:04;;;;;;;11.45;8.13;;;;;;;2.27;62.81;100952.09;1715397;82;21158;-48
2020/12/28 05:02:32;;;;;;;11.25;7.83;;;;;;;2.26;62.85;100954.31;1714675;83;21174;-47
2020/12/28 05:05:07;;;;;;;14.15;7.75;;;;;;;2.25;62.74;100960.03;1712851;82;21542;-51
2020/12/28 05:07:35;;;;;;;11.03;7.95;;;;;;;2.24;62.66;100959.59;1713218;83;21134;-51
2020/12/28 05:10:03;;;;;;;14.65;8.93;;;;;;;2.25;62.63;100958.72;1646461;85;21202;-48
2020/12/28 05:12:31;;;;;;;14.63;9.35;;;;;;;2.25;62.57;100960.03;1682686;84;21176;-48
2020/12/28 05:15:07;;;;;;;12.65;8.30;;;;;;;2.25;62.50;100958.72;1674063;85;21215;-47
2020/12/28 05:17:35;;;;;;;12.23;7.35;;;;;;;2.21;62.40;100960.96;1672485;84;21173;-42
2020/12/28 05:20:03;;;;;;;14.38;8.30;;;;;;;2.21;62.58;100954.38;1642650;86;21168;-51
2020/12/28 05:22:31;;;;;;;10.08;7.15;;;;;;;2.21;62.65;100948.26;1680852;84;21165;-51
2020/12/28 05:24:59;;;;;;;13.20;8.05;;;;;;;2.24;62.58;100944.25;1652924;84;21161;-47
2020/12/28 05:27:26;;;;;;;11.55;7.60;;;;;;;2.26;62.48;100949.05;1676377;84;21176;-47
2020/12/28 05:29:54;;;;;;;13.18;8.00;;;;;;;2.26;62.42;100949.05;1667814;84;21242;-47
2020/12/28 05:32:23;;;;;;;10.95;7.15;;;;;;;2.30;62.33;100956.01;1628102;86;21186;-48
2020/12/28 05:34:50;;;;;;;12.60;7.50;;;;;;;2.28;62.22;100946.81;1655237;86;21161;-47
2020/12/28 05:37:18;;;;;;;12.15;7.58;;;;;;;2.30;63.97;100939.77;1664702;85;21218;-48
2020/12/28 05:39:46;;;;;;;13.05;7.42;;;;;;;2.45;65.57;100951.80;1671875;84;21168;-46
2020/12/28 05:42:14;;;;;;;11.28;7.83;;;;;;;2.63;65.11;100956.31;1665036;84;21288;-47
2020/12/28 05:44:43;;;;;;;11.28;7.28;;;;;;;2.73;64.86;100961.38;1667253;84;21209;-51
2020/12/28 05:47:14;;;;;;;12.00;8.38;;;;;;;2.77;63.07;100964.80;1660565;84;21155;-50
2020/12/28 05:49:43;;;;;;;15.40;8.10;;;;;;;2.72;62.24;100970.19;1667227;84;21166;-49
2020/12/28 05:52:14;;;;;;;12.35;7.55;;;;;;;2.69;62.07;100973.31;1627450;86;21177;-48
2020/12/28 05:54:42;;;;;;;14.60;9.05;;;;;;;2.65;61.89;100973.83;1650385;85;21684;-48
2020/12/28 05:57:10;;;;;;;13.13;8.45;;;;;;;2.60;61.79;100967.31;1643463;85;21202;-49
2020/12/28 05:59:38;;;;;;;14.68;8.28;;;;;;;2.57;61.79;100965.17;1660564;84;21130;-52
2020/12/28 06:02:09;;;;;;;10.80;7.12;;;;;;;2.54;61.72;100970.05;1655523;85;21185;-48
2020/12/28 06:04:38;;;;;;;11.10;7.87;;;;;;;2.52;61.76;100964.38;1648541;85;22198;-47
2020/12/28 06:07:05;;;;;;;13.75;8.35;;;;;;;2.51;61.97;100966.61;1671600;84;21176;-49
2020/12/28 06:09:33;;;;;;;11.88;8.28;;;;;;;2.50;62.21;100967.06;1678977;84;22010;-52
2020/12/28 06:12:08;;;;;;;15.78;7.70;;;;;;;2.48;62.59;100962.27;1648752;85;21890;-52
2020/12/28 06:14:40;;;;;;;11.45;7.50;;;;;;;2.48;62.84;100956.14;1674969;84;21182;-47
2020/12/28 06:17:12;;;;;;;10.35;7.28;;;;;;;2.47;64.24;100953.06;1658264;85;21578;-48
2020/12/28 06:19:41;;;;;;;11.97;8.48;;;;;;;2.55;64.57;100959.95;1656060;84;21181;-49
2020/12/28 06:22:20;;;;;;;10.38;7.80;;;;;;;2.65;64.42;100948.80;1655004;84;21566;-46
2020/12/28 06:25:08;;;;;;;12.63;8.30;;;;;;;2.67;64.21;100952.28;1640747;87;21143;-47
2020/12/28 06:27:45;;;;;;;11.18;8.40;;;;;;;2.63;64.13;100944.01;1635996;85;21170;-45
2020/12/28 06:30:20;;;;;;;13.90;7.83;;;;;;;2.58;64.20;100941.91;1698344;84;21169;-44
2020/12/28 06:33:02;;;;;;;10.53;7.62;;;;;;;2.55;64.06;100933.62;1698198;82;21147;-47
2020/12/28 06:35:30;;;;;;;11.65;7.95;;;;;;;2.49;64.11;100933.71;1699927;83;21150;-46
2020/12/28 06:38:02;;;;;;;11.28;7.58;;;;;;;2.47;64.19;100938.58;1699574;82;21142;-46
2020/12/28 06:40:37;;;;;;;11.30;8.15;;;;;;;2.46;64.12;100938.17;1707864;82;21142;-51
2020/12/28 06:43:12;;;;;;;10.65;7.25;;;;;;;2.44;63.90;100946.09;1706491;82;21118;-47
2020/12/28 06:45:42;;;;;;;10.90;7.87;;;;;;;2.43;63.91;100942.19;1697782;82;21122;-46
2020/12/28 06:48:25;;;;;;;10.23;7.35;;;;;;;2.43;63.89;100942.19;1703976;82;21123;-48
2020/12/28 06:50:57;;;;;;;13.35;7.80;;;;;;;2.42;63.93;100938.69;1705845;84;21410;-52
2020/12/28 06:53:27;;;;;;;11.25;7.45;;;;;;;2.43;64.19;100932.52;1701700;83;21169;-50
2020/12/28 06:56:07;;;;;;;11.65;8.00;;;;;;;2.42;64.16;100930.80;1705025;82;21290;-46
2020/12/28 06:58:35;;;;;;;12.03;8.63;;;;;;;2.42;64.40;100933.84;1706176;83;21173;-45
2020/12/28 07:01:06;;;;;;;12.82;8.45;;;;;;;2.40;64.47;100923.81;1701878;82;21579;-48
2020/12/28 07:03:34;;;;;;;12.13;8.65;;;;;;;2.38;64.47;100918.11;1702214;82;21153;-48
2020/12/28 07:06:05;;;;;;;11.08;7.65;;;;;;;2.38;64.44;100917.25;1703213;82;21158;-50
2020/12/28 07:08:33;;;;;;;;;;;;;;;2.37;64.63;100894.02;1706331;82;21134;-51
2020/12/28 07:11:03;;;;;;;15.55;8.08;;;;;;;2.38;64.55;100888.30;1704032;82;20418;-48
2020/12/28 07:13:31;;;;;;;10.23;7.72;;;;;;;2.37;64.46;100882.17;1707682;82;21158;-47
2020/12/28 07:16:05;;;;;;;14.33;8.55;;;;;;;2.36;64.16;100897.52;1704373;82;21150;-46
2020/12/28 07:18:34;;;;;;;13.62;8.65;;;;;;;2.36;64.12;100876.47;1705516;82;21154;-45
2020/12/28 07:21:03;;;;;;;11.68;8.03;;;;;;;2.37;64.13;100877.36;1703388;83;21157;-45
2020/12/28 07:23:31;;;;;;;13.00;8.18;;;;;;;2.35;63.88;100869.94;1704984;82;21173;-47
2020/12/28 07:26:07;;;;;;;11.90;8.33;;;;;;;2.35;64.01;100868.61;1712822;82;21675;-47
2020/12/28 07:28:40;;;;;;;14.35;8.98;;;;;;;2.36;63.75;100879.09;1708959;82;21157;-50
2020/12/28 07:31:08;;;;;;;13.15;8.23;;;;;;;2.34;63.77;100874.76;1706541;82;21161;-46
2020/12/28 07:33:45;;;;;;;12.15;7.65;;;;;;;2.33;63.67;100883.11;1708148;82;21145;-48
2020/12/28 07:36:29;;;;;;;13.80;7.62;;;;;;;2.34;63.60;100875.66;1705013;82;21755;-49
2020/12/28 07:39:12;;;;;;;11.95;8.50;;;;;;;2.35;63.41;100872.11;1702978;82;21122;-52
2020/12/28 07:41:40;;;;;;;13.80;8.18;;;;;;;2.37;63.48;100876.91;1705877;82;21181;-48
2020/12/28 07:44:13;;;;;;;12.85;8.70;;;;;;;2.37;63.30;100879.53;1705939;83;21149;-48
2020/12/28 07:46:55;;;;;;;11.53;7.15;;;;;;;2.40;63.15;100895.72;1677912;83;21586;-48
2020/12/28 07:49:28;;;;;;;10.08;7.17;;;;;;;2.46;63.21;100885.52;1708914;82;21153;-49
2020/12/28 07:52:14;;;;;;;11.30;8.05;;;;;;;2.50;63.11;100888.07;1707738;82;21126;-50
2020/12/28 07:55:02;;;;;;;10.05;7.60;;;;;;;2.52;62.96;100889.34;1649066;85;21149;-48
2020/12/28 07:57:54;;;;;;;13.43;7.53;;;;;;;2.49;62.86;100874.92;1708989;83;21146;-48
2020/12/28 08:00:24;;;;;;;14.60;8.05;;;;;;;2.49;62.91;100878.42;1708172;82;21561;-47
2020/12/28 08:03:12;;;;;;;13.88;8.68;;;;;;;2.48;62.80;100871.88;1707207;82;21114;-49
2020/12/28 08:05:41;;;;;;;12.73;7.58;;;;;;;2.49;62.73;100873.61;1709061;82;21149;-50
2020/12/28 08:08:22;;;;;;;11.60;7.12;;;;;;;2.51;62.81;100861.29;1705367;82;21557;-48
2020/12/28 08:10:56;;;;;;;13.32;7.90;;;;;;;2.50;62.67;100874.05;1713191;82;21275;-45
2020/12/28 08:13:30;;;;;;;9.60;6.35;;;;;;;2.53;62.75;100877.48;1708834;82;21161;-47
2020/12/28 08:16:13;;;;;;;12.05;7.55;;;;;;;2.55;62.82;100880.09;1703552;82;21167;-54
2020/12/28 08:19:06;;;;;;;12.23;7.47;;;;;;;2.59;62.76;100879.98;1797229;78;23554;-47
2020/12/28 08:21:41;;;;;;;10.20;7.55;;;;;;;2.57;62.69;100884.85;1754349;80;21156;-46
2020/12/28 08:24:17;;;;;;;10.72;7.33;;;;;;;2.57;62.62;100883.53;1768580;80;21203;-47
2020/12/28 08:26:46;;;;;;;10.72;6.75;;;;;;;2.58;62.68;100882.66;1765362;79;21153;-49
2020/12/28 08:29:14;;;;;;;11.90;7.47;;;;;;;2.60;62.69;100874.28;1768433;79;21154;-51
2020/12/28 08:31:41;;;;;;;13.65;7.80;;;;;;;2.63;62.75;100865.45;1765376;79;21184;-50
2020/12/28 08:34:11;;;;;;;11.18;7.65;;;;;;;2.65;62.66;100855.31;1773511;80;21875;-51
2020/12/28 08:36:41;;;;;;;11.38;7.92;;;;;;;2.65;62.62;100869.80;1761613;80;21145;-50
2020/12/28 08:39:16;;;;;;;11.88;7.40;;;;;;;2.65;62.87;100866.30;1771596;79;21594;-51
2020/12/28 08:41:56;;;;;;;10.80;7.08;;;;;;;2.68;62.82;100867.55;1770813;78;21947;-48
2020/12/28 08:44:32;;;;;;;13.25;7.10;;;;;;;2.70;62.92;100862.67;1781323;78;21154;-47
2020/12/28 08:47:07;;;;;;;9.98;6.85;;;;;;;2.73;62.84;100865.23;1783579;78;21152;-47
2020/12/28 08:49:35;;;;;;;11.83;8.28;;;;;;;2.72;62.81;100858.67;1771409;79;21145;-47
2020/12/28 08:52:13;;;;;;;10.63;7.72;;;;;;;2.72;62.85;100852.98;1782550;78;21145;-48
2020/12/28 08:54:41;;;;;;;11.43;7.97;;;;;;;2.73;62.90;100854.70;1768841;80;21180;-52
2020/12/28 08:57:25;;;;;;;11.38;7.25;;;;;;;2.72;63.05;100841.13;1771397;79;21172;-49
2020/12/28 08:59:54;;;;;;;12.85;8.28;;;;;;;2.72;63.20;100842.87;1782879;80;21185;-50
2020/12/28 09:02:27;;;;;;;11.10;7.55;;;;;;;2.74;63.29;100832.72;1775691;79;21594;-52
2020/12/28 09:04:55;;;;;;;11.57;7.53;;;;;;;2.75;63.37;100827.02;1773206;79;21201;-49
2020/12/28 09:07:23;;;;;;;11.40;7.70;;;;;;;2.78;63.38;100815.10;1767059;79;21193;-48
2020/12/28 09:09:51;;;;;;;10.85;7.87;;;;;;;2.75;63.60;100814.72;1723099;81;21180;-47
2020/12/28 09:12:19;;;;;;;10.63;6.80;;;;;;;2.75;63.67;100796.28;1729391;81;21167;-47
2020/12/28 09:14:47;;;;;;;13.85;8.53;;;;;;;2.73;63.75;100778.78;1725032;81;21157;-47
2020/12/28 09:17:16;;;;;;;12.93;8.95;;;;;;;2.73;63.90;100766.92;1695154;82;21719;-46
2020/12/28 09:19:44;;;;;;;10.70;7.83;;;;;;;2.72;63.88;100770.02;1705472;83;21687;-52
2020/12/28 09:22:11;;;;;;;9.88;6.53;;;;;;;2.71;63.94;100759.05;1740590;80;21433;-49
2020/12/28 09:24:39;;;;;;;10.48;7.25;;;;;;;2.69;64.06;100761.30;1711675;82;21188;-50
2020/12/28 09:27:06;;;;;;;10.80;7.28;;;;;;;2.69;64.22;100781.05;1739420;81;21157;-49
2020/12/28 09:29:34;;;;;;;11.63;8.23;;;;;;;2.70;64.08;100765.68;1743603;81;21198;-47
2020/12/28 09:32:01;;;;;;;11.08;7.10;;;;;;;2.68;64.20;100770.97;1737005;81;21132;-49
2020/12/28 09:34:29;;;;;;;11.48;7.75;;;;;;;2.69;64.27;100771.38;1742597;81;21125;-54
2020/12/28 09:37:02;;;;;;;10.15;7.22;;;;;;;2.71;64.51;100774.84;1709126;81;21421;-56
2020/12/28 09:39:30;;;;;;;13.00;8.43;;;;;;;2.73;64.55;100770.42;1712394;82;21197;-49
2020/12/28 09:41:57;;;;;;;12.00;8.25;;;;;;;2.71;64.41;100770.89;1739253;80;21162;-48
2020/12/28 09:44:25;;;;;;;12.07;7.87;;;;;;;2.73;64.54;100780.09;1711965;82;21164;-47
2020/12/28 09:46:54;;;;;;;10.20;7.08;;;;;;;2.73;64.30;100770.42;1693277;81;21171;-49
2020/12/28 09:49:22;;;;;;;10.20;7.62;;;;;;;2.74;64.40;100777.86;1724716;83;21185;-49
2020/12/28 09:51:53;;;;;;;9.23;6.53;;;;;;;2.75;64.32;100767.77;1746212;80;21138;-48
2020/12/28 09:54:21;;;;;;;13.80;8.38;;;;;;;2.79;64.32;100761.51;1747719;80;21303;-48
2020/12/28 09:56:50;;;;;;;10.48;7.25;;;;;;;2.79;64.45;100765.46;1726214;80;21157;-48
2020/12/28 09:59:18;;;;;;;12.63;7.55;;;;;;;2.81;64.43;100764.52;1741394;80;21192;-49
2020/12/28 10:01:46;;;;;;;12.63;9.00;;;;;;;2.81;64.29;100757.94;1722585;80;22044;-45
2020/12/28 10:04:13;;;;;;;13.13;8.03;;;;;;;2.80;64.40;100757.99;1734100;80;21904;-46
2020/12/28 10:06:41;;;;;;;14.07;8.00;;;;;;;2.79;64.53;100749.20;1734561;80;21165;-47
2020/12/28 10:09:10;;;;;;;13.93;8.73;;;;;;;2.80;64.65;100754.91;1747550;80;21692;-46
2020/12/28 10:11:38;;;;;;;13.83;8.93;;;;;;;2.82;64.59;100745.63;1711012;83;21210;-46
2020/12/28 10:14:06;;;;;;;12.10;8.38;;;;;;;2.84;64.50;100739.88;1717278;81;21219;-49
2020/12/28 10:16:33;;;;;;;13.80;9.03;;;;;;;2.81;64.87;100743.45;1709520;81;21470;-45
2020/12/28 10:19:01;;;;;;;12.68;7.87;;;;;;;2.77;64.95;100730.38;1704587;81;21156;-48
2020/12/28 10:21:28;;;;;;;11.03;7.30;;;;;;;2.77;65.08;100722.05;1700924;82;21167;-45
2020/12/28 10:23:57;;;;;;;13.50;8.00;;;;;;;2.77;65.05;100712.83;1703692;83;21181;-45
2020/12/28 10:26:26;;;;;;;15.08;8.00;;;;;;;2.75;65.15;100704.09;1748745;80;21639;-45
2020/12/28 10:28:55;;;;;;;12.37;7.85;;;;;;;2.71;65.03;100695.83;1713719;82;21210;-46
2020/12/28 10:31:23;;;;;;;13.18;8.38;;;;;;;2.69;65.31;100691.05;1713876;81;21195;-48
2020/12/28 10:33:52;;;;;;;10.58;7.83;;;;;;;2.70;65.44;100685.35;1716846;81;21197;-47
2020/12/28 10:36:26;;;;;;;13.45;8.83;;;;;;;2.71;65.64;100679.17;1711396;81;21161;-47
2020/12/28 10:38:57;;;;;;;11.18;7.60;;;;;;;2.69;65.83;100677.87;1729945;80;21172;-45
2020/12/28 10:41:29;;;;;;;12.37;7.33;;;;;;;2.69;65.92;100674.38;1710730;82;21650;-44
2020/12/28 10:43:57;;;;;;;13.03;7.83;;;;;;;2.67;66.04;100668.28;1693934;81;21812;-43
2020/12/28 10:46:25;;;;;;;11.55;8.38;;;;;;;2.67;66.14;100667.85;1736409;80;21157;-46
2020/12/28 10:48:56;;;;;;;11.35;7.47;;;;;;;2.69;66.17;100671.75;1740351;80;21298;-47
2020/12/28 10:51:23;;;;;;;12.73;7.62;;;;;;;2.71;66.09;100672.13;1741903;80;21712;-46
2020/12/28 10:53:51;;;;;;;12.03;7.17;;;;;;;2.73;66.13;100662.89;1700413;82;21451;-44
2020/12/28 10:56:24;;;;;;;10.10;7.17;;;;;;;2.72;66.07;100666.41;1714269;81;21617;-44
2020/12/28 10:58:51;;;;;;;13.95;8.53;;;;;;;2.75;66.18;100661.09;1735523;80;21169;-47
2020/12/28 11:01:24;;;;;;;13.53;7.62;;;;;;;2.75;66.15;100662.41;1735433;80;21161;-46
2020/12/28 11:03:52;;;;;;;11.57;7.33;;;;;;;2.73;66.00;100662.89;1732743;80;21161;-45
2020/12/28 11:06:20;;;;;;;11.57;8.58;;;;;;;2.72;65.92;100655.44;1718389;81;21515;-49
2020/12/28 11:08:48;;;;;;;13.65;8.58;;;;;;;2.73;65.89;100645.77;1716178;81;21562;-45
2020/12/28 11:11:17;;;;;;;12.33;7.65;;;;;;;2.71;65.99;100644.47;1703485;81;21748;-45
2020/12/28 11:13:45;;;;;;;11.18;7.90;;;;;;;2.70;66.09;100642.76;1702558;82;21707;-49
2020/12/28 11:16:13;;;;;;;13.70;8.00;;;;;;;2.69;66.05;100636.20;1737249;81;21153;-43
2020/12/28 11:18:41;;;;;;;12.35;7.92;;;;;;;2.68;66.13;100643.23;1703888;81;21851;-39
2020/12/28 11:21:11;;;;;;;11.18;7.80;;;;;;;2.66;66.77;100637.13;1712904;82;21157;-41
2020/12/28 11:26:24;;;;;;;11.43;8.15;;;;;;;2.70;66.69;100626.09;1712801;82;21175;-38
2020/12/28 11:28:52;;;;;;;16.57;8.35;;;;;;;2.72;66.83;100613.73;1707202;82;21222;-43
2020/12/28 11:31:19;;;;;;;13.65;8.73;;;;;;;2.69;66.90;100593.59;1713725;82;21600;-42
2020/12/28 11:33:47;;;;;;;14.78;9.35;;;;;;;2.68;66.92;100577.86;1744694;80;21176;-41
2020/12/28 11:36:15;;;;;;;12.05;8.98;;;;;;;2.67;66.98;100578.73;1710033;83;21186;-40
2020/12/28 11:38:43;;;;;;;13.00;9.00;;;;;;;2.66;67.04;100579.66;1719943;80;21188;-47
2020/12/28 11:41:15;;;;;;;14.28;9.03;;;;;;;2.64;67.22;100561.25;1706267;83;21181;-41
2020/12/28 11:43:43;;;;;;;14.30;9.65;;;;;;;2.65;67.27;100557.73;1739240;80;21146;-42
2020/12/28 11:46:10;;;;;;;13.60;9.53;;;;;;;2.64;67.40;100544.12;1744217;80;21580;-40
2020/12/28 11:48:39;;;;;;;15.08;8.58;;;;;;;2.60;67.42;100543.81;1734641;81;22315;-41
2020/12/28 11:51:07;;;;;;;13.45;8.55;;;;;;;2.60;67.62;100542.50;1726717;80;21476;-39
2020/12/28 11:53:35;;;;;;;13.18;9.30;;;;;;;2.61;67.69;100540.27;1739674;80;21157;-39